LGX86DB LICR-LIRA
Flight info
| Callsign | LGX86DB |
|---|---|
| Flight time | 1h 13m |
| Altitude | 18000 |
| Route | PAZZE Z854 BAGIX/N0308F280 DCT SOR DCT TEA DCT ALAXI |
| Aircraft | B350/L-SBGRWY/C |
Departure
| Time | 2026-05-05 17:31 |
|---|---|
| Airport | Reggio Calabria Airport (LICR) |
Arrival
| Time | 2026-05-05 18:44 |
|---|---|
| Airport | Ciampino–G. B. Pastine International Airport (LIRA) |
| Time | Latitude | Longitude | Altitude | Speed | Heading |
|---|---|---|---|---|---|
| 2026-05-05 17:09 | 38.07368 | 15.65166 | 72 ft | 0 kts | 198° |
| 2026-05-05 17:24 | 38.07367 | 15.65165 | 72 ft | 1 kts | 214° |
| 2026-05-05 17:24 | 38.07376 | 15.65137 | 72 ft | 4 kts | 307° |
| 2026-05-05 17:25 | 38.07399 | 15.65114 | 73 ft | 6 kts | 335° |
| 2026-05-05 17:25 | 38.07418 | 15.65088 | 74 ft | 7 kts | 257° |
| 2026-05-05 17:25 | 38.07409 | 15.65064 | 72 ft | 6 kts | 242° |
| 2026-05-05 17:25 | 38.07356 | 15.64952 | 68 ft | 12 kts | 235° |
| 2026-05-05 17:26 | 38.07352 | 15.64944 | 67 ft | 0 kts | 234° |
| 2026-05-05 17:26 | 38.07350 | 15.64941 | 67 ft | 6 kts | 240° |
| 2026-05-05 17:26 | 38.07379 | 15.64900 | 68 ft | 4 kts | 35° |
| 2026-05-05 17:27 | 38.07436 | 15.64941 | 72 ft | 18 kts | 19° |
| 2026-05-05 17:27 | 38.07529 | 15.64895 | 77 ft | 15 kts | 335° |
| 2026-05-05 17:27 | 38.07627 | 15.64838 | 83 ft | 15 kts | 334° |
| 2026-05-05 17:27 | 38.07726 | 15.64775 | 88 ft | 16 kts | 332° |
| 2026-05-05 17:28 | 38.07833 | 15.64706 | 92 ft | 17 kts | 335° |
| 2026-05-05 17:28 | 38.07864 | 15.64667 | 93 ft | 2 kts | 142° |
| 2026-05-05 17:28 | 38.07857 | 15.64677 | 93 ft | 0 kts | 154° |
| 2026-05-05 17:28 | 38.07853 | 15.64679 | 93 ft | 0 kts | 154° |
| 2026-05-05 17:30 | 38.07819 | 15.64702 | 91 ft | 36 kts | 152° |
| 2026-05-05 17:31 | 38.07289 | 15.65059 | 146 ft | 116 kts | 152° |
| 2026-05-05 17:31 | 38.06580 | 15.65582 | 766 ft | 124 kts | 152° |
| 2026-05-05 17:31 | 38.05839 | 15.66120 | 1443 ft | 128 kts | 151° |
| 2026-05-05 17:31 | 38.04954 | 15.66468 | 1978 ft | 143 kts | 181° |
| 2026-05-05 17:32 | 38.03954 | 15.66042 | 2415 ft | 164 kts | 217° |
| 2026-05-05 17:32 | 38.03171 | 15.64953 | 3021 ft | 174 kts | 240° |
| 2026-05-05 17:32 | 38.02799 | 15.63472 | 3517 ft | 185 kts | 262° |
| 2026-05-05 17:32 | 38.02676 | 15.61869 | 4285 ft | 178 kts | 277° |
| 2026-05-05 17:33 | 38.03086 | 15.60433 | 4888 ft | 181 kts | 303° |
| 2026-05-05 17:33 | 38.03957 | 15.59269 | 5405 ft | 188 kts | 324° |
| 2026-05-05 17:33 | 38.05151 | 15.58614 | 5983 ft | 191 kts | 349° |
| 2026-05-05 17:33 | 38.06467 | 15.58488 | 6639 ft | 188 kts | 355° |
| 2026-05-05 17:34 | 38.07751 | 15.58307 | 7314 ft | 183 kts | 349° |
| 2026-05-05 17:34 | 38.08996 | 15.57964 | 7889 ft | 183 kts | 346° |
| 2026-05-05 17:34 | 38.10226 | 15.57614 | 8418 ft | 184 kts | 344° |
| 2026-05-05 17:34 | 38.11486 | 15.57253 | 8961 ft | 185 kts | 348° |
| 2026-05-05 17:35 | 38.12779 | 15.57122 | 9512 ft | 190 kts | 352° |
| 2026-05-05 17:35 | 38.14109 | 15.57003 | 10132 ft | 191 kts | 352° |
| 2026-05-05 17:35 | 38.15423 | 15.56883 | 10765 ft | 192 kts | 351° |
| 2026-05-05 17:35 | 38.16740 | 15.56763 | 11406 ft | 192 kts | 351° |
| 2026-05-05 17:36 | 38.18059 | 15.56641 | 12023 ft | 192 kts | 351° |
| 2026-05-05 17:36 | 38.19393 | 15.56519 | 12599 ft | 194 kts | 350° |
| 2026-05-05 17:36 | 38.20735 | 15.56395 | 13188 ft | 194 kts | 350° |
| 2026-05-05 17:36 | 38.22092 | 15.56271 | 13773 ft | 193 kts | 349° |
| 2026-05-05 17:37 | 38.23418 | 15.56148 | 14302 ft | 194 kts | 349° |
| 2026-05-05 17:37 | 38.24775 | 15.56023 | 14808 ft | 195 kts | 349° |
| 2026-05-05 17:37 | 38.26146 | 15.55897 | 15294 ft | 197 kts | 349° |
| 2026-05-05 17:37 | 38.27517 | 15.55770 | 15764 ft | 198 kts | 350° |
| 2026-05-05 17:38 | 38.28909 | 15.55642 | 16219 ft | 200 kts | 350° |
| 2026-05-05 17:38 | 38.30297 | 15.55514 | 16658 ft | 202 kts | 349° |
| 2026-05-05 17:38 | 38.31711 | 15.55383 | 17088 ft | 203 kts | 350° |
| 2026-05-05 17:38 | 38.33109 | 15.55255 | 17540 ft | 202 kts | 349° |
| 2026-05-05 17:39 | 38.34504 | 15.55127 | 18026 ft | 199 kts | 350° |
| 2026-05-05 17:39 | 38.35873 | 15.55000 | 18486 ft | 197 kts | 349° |
| 2026-05-05 17:39 | 38.37232 | 15.54874 | 18881 ft | 198 kts | 349° |
| 2026-05-05 17:39 | 38.38620 | 15.54745 | 19253 ft | 199 kts | 349° |
| 2026-05-05 17:40 | 38.40001 | 15.54618 | 19630 ft | 200 kts | 349° |
| 2026-05-05 17:40 | 38.41379 | 15.54490 | 20007 ft | 200 kts | 349° |
| 2026-05-05 17:40 | 38.42752 | 15.54363 | 20371 ft | 199 kts | 349° |
| 2026-05-05 17:40 | 38.44152 | 15.54233 | 20738 ft | 201 kts | 349° |
| 2026-05-05 17:41 | 38.45547 | 15.54104 | 21105 ft | 202 kts | 349° |
| 2026-05-05 17:41 | 38.46947 | 15.53974 | 21489 ft | 203 kts | 349° |
| 2026-05-05 17:41 | 38.48351 | 15.53844 | 21870 ft | 203 kts | 349° |
| 2026-05-05 17:41 | 38.49762 | 15.53713 | 22241 ft | 203 kts | 349° |
| 2026-05-05 17:42 | 38.51157 | 15.53584 | 22610 ft | 202 kts | 349° |
| 2026-05-05 17:42 | 38.52570 | 15.53452 | 22923 ft | 204 kts | 349° |
| 2026-05-05 17:42 | 38.53989 | 15.53319 | 23211 ft | 207 kts | 349° |
| 2026-05-05 17:42 | 38.55416 | 15.53187 | 23521 ft | 208 kts | 349° |
| 2026-05-05 17:43 | 38.56869 | 15.53051 | 23838 ft | 210 kts | 349° |
| 2026-05-05 17:43 | 38.58338 | 15.52914 | 24157 ft | 210 kts | 348° |
| 2026-05-05 17:43 | 38.59777 | 15.52780 | 24463 ft | 210 kts | 348° |
| 2026-05-05 17:43 | 38.61240 | 15.52644 | 24774 ft | 210 kts | 348° |
| 2026-05-05 17:44 | 38.62713 | 15.52506 | 25083 ft | 210 kts | 348° |
| 2026-05-05 17:44 | 38.64169 | 15.52371 | 25383 ft | 211 kts | 348° |
| 2026-05-05 17:44 | 38.65622 | 15.52236 | 25675 ft | 211 kts | 348° |
| 2026-05-05 17:44 | 38.67084 | 15.52099 | 25956 ft | 211 kts | 348° |
| 2026-05-05 17:45 | 38.68560 | 15.51962 | 26248 ft | 211 kts | 348° |
| 2026-05-05 17:45 | 38.70017 | 15.51826 | 26526 ft | 211 kts | 348° |
| 2026-05-05 17:45 | 38.71474 | 15.51690 | 26804 ft | 211 kts | 348° |
| 2026-05-05 17:45 | 38.72939 | 15.51553 | 27084 ft | 211 kts | 348° |
| 2026-05-05 17:46 | 38.74400 | 15.51417 | 27354 ft | 211 kts | 348° |
| 2026-05-05 17:46 | 38.75874 | 15.51279 | 27622 ft | 210 kts | 348° |
| 2026-05-05 17:46 | 38.77325 | 15.51143 | 27880 ft | 210 kts | 348° |
| 2026-05-05 17:46 | 38.78780 | 15.51006 | 28059 ft | 214 kts | 348° |
| 2026-05-05 17:47 | 38.80318 | 15.50860 | 28079 ft | 224 kts | 348° |
| 2026-05-05 17:47 | 38.81889 | 15.50712 | 28086 ft | 233 kts | 348° |
| 2026-05-05 17:47 | 38.83541 | 15.50557 | 28084 ft | 243 kts | 348° |
| 2026-05-05 17:47 | 38.85276 | 15.50395 | 28081 ft | 252 kts | 349° |
| 2026-05-05 17:48 | 38.87045 | 15.50230 | 28078 ft | 261 kts | 349° |
| 2026-05-05 17:48 | 38.88895 | 15.50057 | 28077 ft | 268 kts | 349° |
| 2026-05-05 17:48 | 38.90773 | 15.49881 | 28076 ft | 275 kts | 349° |
| 2026-05-05 17:48 | 38.92717 | 15.49699 | 28074 ft | 282 kts | 350° |
| 2026-05-05 17:49 | 38.94696 | 15.49513 | 28071 ft | 288 kts | 350° |
| 2026-05-05 17:49 | 38.96703 | 15.49325 | 28072 ft | 293 kts | 350° |
| 2026-05-05 17:49 | 38.98752 | 15.49093 | 28068 ft | 295 kts | 345° |
| 2026-05-05 17:49 | 39.00636 | 15.48204 | 28077 ft | 290 kts | 328° |
| 2026-05-05 17:50 | 39.02450 | 15.46991 | 28071 ft | 294 kts | 329° |
| 2026-05-05 17:50 | 39.04279 | 15.45799 | 28075 ft | 298 kts | 329° |
| 2026-05-05 17:50 | 39.06148 | 15.44597 | 28069 ft | 302 kts | 329° |
| 2026-05-05 17:51 | 39.09944 | 15.42174 | 28070 ft | 307 kts | 329° |
| 2026-05-05 17:51 | 39.13801 | 15.39716 | 28068 ft | 307 kts | 329° |
| 2026-05-05 17:52 | 39.17633 | 15.37270 | 28068 ft | 306 kts | 329° |
| 2026-05-05 17:52 | 39.21482 | 15.34812 | 28069 ft | 305 kts | 328° |
| 2026-05-05 17:53 | 39.25276 | 15.32385 | 28077 ft | 306 kts | 329° |
| 2026-05-05 17:53 | 39.29114 | 15.29927 | 28068 ft | 306 kts | 328° |
| 2026-05-05 17:54 | 39.32946 | 15.27470 | 28078 ft | 306 kts | 329° |
| 2026-05-05 17:54 | 39.36778 | 15.25010 | 28080 ft | 306 kts | 329° |
| 2026-05-05 17:55 | 39.40601 | 15.22553 | 28076 ft | 306 kts | 328° |
| 2026-05-05 17:55 | 39.44437 | 15.20084 | 28076 ft | 306 kts | 328° |
| 2026-05-05 17:56 | 39.48256 | 15.17624 | 28062 ft | 307 kts | 328° |
| 2026-05-05 17:56 | 39.52132 | 15.15123 | 28074 ft | 307 kts | 328° |
| 2026-05-05 17:57 | 39.55938 | 15.12665 | 28074 ft | 307 kts | 328° |
| 2026-05-05 17:57 | 39.59779 | 15.10181 | 28075 ft | 307 kts | 328° |
| 2026-05-05 17:58 | 39.63600 | 15.07706 | 28072 ft | 307 kts | 328° |
| 2026-05-05 17:58 | 39.67415 | 15.05233 | 28074 ft | 306 kts | 328° |
| 2026-05-05 17:59 | 39.71234 | 15.02754 | 28069 ft | 306 kts | 328° |
| 2026-05-05 17:59 | 39.75050 | 15.00273 | 28069 ft | 306 kts | 328° |
| 2026-05-05 18:00 | 39.78875 | 14.97784 | 28069 ft | 306 kts | 328° |
| 2026-05-05 18:00 | 39.82676 | 14.95307 | 28068 ft | 306 kts | 328° |
| 2026-05-05 18:01 | 39.86495 | 14.92815 | 28063 ft | 306 kts | 328° |
| 2026-05-05 18:01 | 39.90304 | 14.90327 | 28068 ft | 306 kts | 328° |
| 2026-05-05 18:02 | 39.94096 | 14.87848 | 28398 ft | 302 kts | 328° |
| 2026-05-05 18:02 | 39.95954 | 14.86632 | 28683 ft | 297 kts | 327° |
| 2026-05-05 18:02 | 39.97770 | 14.85444 | 29070 ft | 290 kts | 327° |
| 2026-05-05 18:02 | 39.99552 | 14.84276 | 29419 ft | 284 kts | 327° |
| 2026-05-05 18:03 | 40.01305 | 14.83125 | 29737 ft | 280 kts | 326° |
| 2026-05-05 18:03 | 40.03034 | 14.81990 | 30013 ft | 278 kts | 326° |
| 2026-05-05 18:03 | 40.04774 | 14.80845 | 30062 ft | 283 kts | 326° |
| 2026-05-05 18:03 | 40.06540 | 14.79684 | 30068 ft | 288 kts | 327° |
| 2026-05-05 18:04 | 40.08345 | 14.78498 | 30069 ft | 292 kts | 327° |
| 2026-05-05 18:04 | 40.10182 | 14.77290 | 30070 ft | 295 kts | 327° |
| 2026-05-05 18:04 | 40.12014 | 14.76085 | 30071 ft | 298 kts | 327° |
| 2026-05-05 18:05 | 40.15774 | 14.73608 | 30063 ft | 303 kts | 327° |
| 2026-05-05 18:05 | 40.19591 | 14.71091 | 30069 ft | 307 kts | 327° |
| 2026-05-05 18:06 | 40.23439 | 14.68550 | 30067 ft | 310 kts | 327° |
| 2026-05-05 18:06 | 40.27296 | 14.66000 | 30061 ft | 311 kts | 327° |
| 2026-05-05 18:07 | 40.31175 | 14.63432 | 30058 ft | 311 kts | 327° |
| 2026-05-05 18:07 | 40.35044 | 14.60866 | 30051 ft | 312 kts | 327° |
| 2026-05-05 18:08 | 40.38894 | 14.58312 | 30040 ft | 306 kts | 327° |
| 2026-05-05 18:08 | 40.42659 | 14.55809 | 30047 ft | 300 kts | 327° |
| 2026-05-05 18:08 | 40.44513 | 14.54576 | 30047 ft | 297 kts | 327° |
| 2026-05-05 18:09 | 40.46365 | 14.53344 | 30047 ft | 294 kts | 327° |
| 2026-05-05 18:09 | 40.48208 | 14.52115 | 30050 ft | 293 kts | 327° |
| 2026-05-05 18:09 | 40.50036 | 14.50896 | 30053 ft | 294 kts | 327° |
| 2026-05-05 18:09 | 40.51854 | 14.49684 | 30050 ft | 295 kts | 327° |
| 2026-05-05 18:10 | 40.53684 | 14.48462 | 30050 ft | 295 kts | 327° |
| 2026-05-05 18:10 | 40.55541 | 14.47222 | 30049 ft | 296 kts | 327° |
| 2026-05-05 18:10 | 40.57385 | 14.45989 | 30048 ft | 297 kts | 327° |
| 2026-05-05 18:10 | 40.59230 | 14.44756 | 30050 ft | 297 kts | 327° |
| 2026-05-05 18:11 | 40.61071 | 14.43524 | 30052 ft | 297 kts | 327° |
| 2026-05-05 18:11 | 40.62929 | 14.42280 | 30049 ft | 298 kts | 327° |
| 2026-05-05 18:11 | 40.64774 | 14.41044 | 30051 ft | 298 kts | 327° |
| 2026-05-05 18:11 | 40.66621 | 14.39813 | 30051 ft | 298 kts | 327° |
| 2026-05-05 18:12 | 40.68253 | 14.38178 | 30046 ft | 287 kts | 308° |
| 2026-05-05 18:12 | 40.69527 | 14.36196 | 30053 ft | 286 kts | 306° |
| 2026-05-05 18:12 | 40.70833 | 14.34145 | 30057 ft | 286 kts | 306° |
| 2026-05-05 18:12 | 40.72114 | 14.32142 | 30056 ft | 286 kts | 306° |
| 2026-05-05 18:13 | 40.73394 | 14.30148 | 30058 ft | 287 kts | 306° |
| 2026-05-05 18:13 | 40.74692 | 14.28124 | 30057 ft | 287 kts | 306° |
| 2026-05-05 18:13 | 40.75970 | 14.26135 | 30059 ft | 287 kts | 306° |
| 2026-05-05 18:13 | 40.77275 | 14.24099 | 30057 ft | 288 kts | 306° |
| 2026-05-05 18:14 | 40.78558 | 14.22099 | 30059 ft | 288 kts | 306° |
| 2026-05-05 18:14 | 40.79855 | 14.20076 | 30061 ft | 289 kts | 306° |
| 2026-05-05 18:14 | 40.81158 | 14.18039 | 30060 ft | 289 kts | 306° |
| 2026-05-05 18:14 | 40.82468 | 14.15992 | 30061 ft | 289 kts | 306° |
| 2026-05-05 18:15 | 40.83761 | 14.13971 | 30061 ft | 289 kts | 306° |
| 2026-05-05 18:15 | 40.85067 | 14.11927 | 30061 ft | 290 kts | 306° |
| 2026-05-05 18:15 | 40.86356 | 14.09910 | 30061 ft | 290 kts | 306° |
| 2026-05-05 18:15 | 40.87661 | 14.07865 | 30061 ft | 290 kts | 306° |
| 2026-05-05 18:16 | 40.88956 | 14.05834 | 30063 ft | 290 kts | 306° |
| 2026-05-05 18:16 | 40.90262 | 14.03785 | 30059 ft | 290 kts | 306° |
| 2026-05-05 18:16 | 40.91556 | 14.01754 | 30059 ft | 290 kts | 306° |
| 2026-05-05 18:16 | 40.92882 | 13.99671 | 30059 ft | 290 kts | 306° |
| 2026-05-05 18:17 | 40.94174 | 13.97640 | 30061 ft | 290 kts | 306° |
| 2026-05-05 18:17 | 40.95479 | 13.95587 | 30060 ft | 290 kts | 306° |
| 2026-05-05 18:17 | 40.96770 | 13.93554 | 30060 ft | 290 kts | 306° |
| 2026-05-05 18:17 | 40.98066 | 13.91514 | 30058 ft | 290 kts | 306° |
| 2026-05-05 18:18 | 40.99371 | 13.89456 | 30059 ft | 290 kts | 306° |
| 2026-05-05 18:18 | 41.00658 | 13.87426 | 30058 ft | 290 kts | 306° |
| 2026-05-05 18:18 | 41.01969 | 13.85355 | 30059 ft | 290 kts | 306° |
| 2026-05-05 18:18 | 41.03250 | 13.83333 | 30060 ft | 290 kts | 306° |
| 2026-05-05 18:19 | 41.04549 | 13.81280 | 30051 ft | 290 kts | 306° |
| 2026-05-05 18:19 | 41.05855 | 13.79214 | 30050 ft | 290 kts | 305° |
| 2026-05-05 18:19 | 41.07147 | 13.77169 | 30046 ft | 290 kts | 306° |
| 2026-05-05 18:19 | 41.08448 | 13.75109 | 30046 ft | 290 kts | 306° |
| 2026-05-05 18:20 | 41.09748 | 13.73049 | 30044 ft | 290 kts | 306° |
| 2026-05-05 18:20 | 41.11050 | 13.70983 | 30039 ft | 290 kts | 305° |
| 2026-05-05 18:20 | 41.12336 | 13.68943 | 30044 ft | 290 kts | 305° |
| 2026-05-05 18:20 | 41.13642 | 13.66869 | 30049 ft | 290 kts | 305° |
| 2026-05-05 18:21 | 41.14938 | 13.64810 | 30046 ft | 290 kts | 305° |
| 2026-05-05 18:21 | 41.16217 | 13.62776 | 30042 ft | 290 kts | 305° |
| 2026-05-05 18:21 | 41.17520 | 13.60703 | 30047 ft | 289 kts | 305° |
| 2026-05-05 18:21 | 41.18800 | 13.58665 | 29780 ft | 292 kts | 305° |
| 2026-05-05 18:22 | 41.20112 | 13.56576 | 29226 ft | 293 kts | 305° |
| 2026-05-05 18:22 | 41.21436 | 13.54464 | 28671 ft | 294 kts | 305° |
| 2026-05-05 18:22 | 41.22731 | 13.52399 | 28129 ft | 294 kts | 306° |
| 2026-05-05 18:22 | 41.24031 | 13.50324 | 27584 ft | 293 kts | 306° |
| 2026-05-05 18:23 | 41.25342 | 13.48229 | 27029 ft | 293 kts | 306° |
| 2026-05-05 18:23 | 41.26645 | 13.46144 | 26474 ft | 292 kts | 306° |
| 2026-05-05 18:23 | 41.27940 | 13.44073 | 25929 ft | 292 kts | 306° |
| 2026-05-05 18:23 | 41.29235 | 13.41999 | 25385 ft | 292 kts | 306° |
| 2026-05-05 18:24 | 41.30533 | 13.39919 | 24840 ft | 292 kts | 306° |
| 2026-05-05 18:24 | 41.31827 | 13.37845 | 24295 ft | 292 kts | 306° |
| 2026-05-05 18:24 | 41.33117 | 13.35774 | 23755 ft | 292 kts | 306° |
| 2026-05-05 18:24 | 41.34412 | 13.33696 | 23216 ft | 291 kts | 306° |
| 2026-05-05 18:25 | 41.35683 | 13.31654 | 22699 ft | 290 kts | 306° |
| 2026-05-05 18:25 | 41.36534 | 13.30285 | 22356 ft | 290 kts | 306° |
| 2026-05-05 18:25 | 41.38245 | 13.27534 | 21655 ft | 289 kts | 306° |
| 2026-05-05 18:25 | 41.39524 | 13.25475 | 21134 ft | 288 kts | 306° |
| 2026-05-05 18:26 | 41.40794 | 13.23428 | 20611 ft | 287 kts | 306° |
| 2026-05-05 18:26 | 41.42054 | 13.21397 | 20100 ft | 286 kts | 306° |
| 2026-05-05 18:26 | 41.43306 | 13.19378 | 19582 ft | 285 kts | 306° |
| 2026-05-05 18:26 | 41.44576 | 13.17328 | 19057 ft | 284 kts | 306° |
| 2026-05-05 18:27 | 41.45811 | 13.15333 | 18545 ft | 283 kts | 306° |
| 2026-05-05 18:27 | 41.47052 | 13.13327 | 18026 ft | 281 kts | 306° |
| 2026-05-05 18:27 | 41.48302 | 13.11305 | 17506 ft | 280 kts | 306° |
| 2026-05-05 18:27 | 41.49522 | 13.09329 | 16998 ft | 279 kts | 306° |
| 2026-05-05 18:28 | 41.51959 | 13.05377 | 15973 ft | 276 kts | 306° |
| 2026-05-05 18:28 | 41.53173 | 13.03410 | 15456 ft | 274 kts | 306° |
| 2026-05-05 18:28 | 41.54369 | 13.01468 | 14944 ft | 272 kts | 306° |
| 2026-05-05 18:29 | 41.55562 | 12.99532 | 14428 ft | 270 kts | 306° |
| 2026-05-05 18:29 | 41.56748 | 12.97605 | 13940 ft | 267 kts | 306° |
| 2026-05-05 18:29 | 41.57923 | 12.95693 | 13432 ft | 265 kts | 307° |
| 2026-05-05 18:29 | 41.59082 | 12.93809 | 12937 ft | 264 kts | 307° |
| 2026-05-05 18:30 | 41.60244 | 12.91916 | 12441 ft | 263 kts | 307° |
| 2026-05-05 18:30 | 41.61388 | 12.90052 | 11954 ft | 262 kts | 307° |
| 2026-05-05 18:30 | 41.62545 | 12.88166 | 11462 ft | 261 kts | 307° |
| 2026-05-05 18:30 | 41.63677 | 12.86321 | 10985 ft | 260 kts | 307° |
| 2026-05-05 18:31 | 41.64817 | 12.84460 | 10505 ft | 258 kts | 307° |
| 2026-05-05 18:31 | 41.65959 | 12.82596 | 10025 ft | 257 kts | 307° |
| 2026-05-05 18:31 | 41.67077 | 12.80769 | 9552 ft | 255 kts | 307° |
| 2026-05-05 18:31 | 41.68198 | 12.78937 | 9079 ft | 254 kts | 307° |
| 2026-05-05 18:32 | 41.69313 | 12.77111 | 8607 ft | 253 kts | 307° |
| 2026-05-05 18:32 | 41.70408 | 12.75320 | 8146 ft | 251 kts | 307° |
| 2026-05-05 18:32 | 41.71503 | 12.73527 | 7673 ft | 246 kts | 307° |
| 2026-05-05 18:32 | 41.72571 | 12.71776 | 7205 ft | 242 kts | 307° |
| 2026-05-05 18:33 | 41.73631 | 12.70038 | 6738 ft | 240 kts | 307° |
| 2026-05-05 18:33 | 41.74680 | 12.68318 | 6272 ft | 238 kts | 307° |
| 2026-05-05 18:33 | 41.75717 | 12.66615 | 5797 ft | 236 kts | 307° |
| 2026-05-05 18:33 | 41.76762 | 12.64897 | 5281 ft | 237 kts | 307° |
| 2026-05-05 18:34 | 41.77789 | 12.63210 | 4779 ft | 236 kts | 308° |
| 2026-05-05 18:34 | 41.78828 | 12.61501 | 4273 ft | 236 kts | 308° |
| 2026-05-05 18:34 | 41.79883 | 12.59862 | 3766 ft | 236 kts | 318° |
| 2026-05-05 18:34 | 41.81356 | 12.58924 | 3245 ft | 237 kts | 350° |
| 2026-05-05 18:35 | 41.82996 | 12.58958 | 2753 ft | 235 kts | 6° |
| 2026-05-05 18:35 | 41.84584 | 12.59104 | 2516 ft | 225 kts | 5° |
| 2026-05-05 18:35 | 41.86105 | 12.59227 | 2487 ft | 210 kts | 5° |
| 2026-05-05 18:35 | 41.87539 | 12.59339 | 2484 ft | 202 kts | 5° |
| 2026-05-05 18:36 | 41.88930 | 12.59446 | 2488 ft | 199 kts | 5° |
| 2026-05-05 18:36 | 41.90310 | 12.59552 | 2492 ft | 199 kts | 5° |
| 2026-05-05 18:36 | 41.91703 | 12.59659 | 2494 ft | 200 kts | 5° |
| 2026-05-05 18:36 | 41.93089 | 12.59765 | 2494 ft | 201 kts | 5° |
| 2026-05-05 18:37 | 41.94504 | 12.59874 | 2493 ft | 202 kts | 5° |
| 2026-05-05 18:37 | 41.95871 | 12.59669 | 2485 ft | 202 kts | 336° |
| 2026-05-05 18:37 | 41.96880 | 12.58425 | 2489 ft | 194 kts | 295° |
| 2026-05-05 18:37 | 41.97138 | 12.56725 | 2492 ft | 185 kts | 263° |
| 2026-05-05 18:38 | 41.96758 | 12.55125 | 2497 ft | 178 kts | 244° |
| 2026-05-05 18:38 | 41.96262 | 12.53594 | 2491 ft | 176 kts | 242° |
| 2026-05-05 18:38 | 41.95742 | 12.52155 | 2481 ft | 166 kts | 239° |
| 2026-05-05 18:38 | 41.95225 | 12.50850 | 2470 ft | 153 kts | 230° |
| 2026-05-05 18:39 | 41.94410 | 12.50162 | 2484 ft | 134 kts | 184° |
| 2026-05-05 18:39 | 41.93511 | 12.50367 | 2506 ft | 130 kts | 161° |
| 2026-05-05 18:39 | 41.92678 | 12.50832 | 2492 ft | 129 kts | 157° |
| 2026-05-05 18:39 | 41.91874 | 12.51310 | 2479 ft | 122 kts | 156° |
| 2026-05-05 18:40 | 41.91130 | 12.51780 | 2470 ft | 113 kts | 154° |
| 2026-05-05 18:40 | 41.90420 | 12.52262 | 2407 ft | 114 kts | 153° |
| 2026-05-05 18:40 | 41.89715 | 12.52754 | 2282 ft | 116 kts | 153° |
| 2026-05-05 18:40 | 41.88982 | 12.53261 | 2142 ft | 119 kts | 153° |
| 2026-05-05 18:41 | 41.88237 | 12.53774 | 1990 ft | 121 kts | 153° |
| 2026-05-05 18:41 | 41.87489 | 12.54290 | 1832 ft | 123 kts | 153° |
| 2026-05-05 18:41 | 41.86723 | 12.54816 | 1662 ft | 121 kts | 153° |
| 2026-05-05 18:41 | 41.85996 | 12.55317 | 1498 ft | 115 kts | 153° |
| 2026-05-05 18:42 | 41.85301 | 12.55796 | 1351 ft | 107 kts | 153° |
| 2026-05-05 18:42 | 41.84666 | 12.56233 | 1211 ft | 99 kts | 153° |
| 2026-05-05 18:42 | 41.84067 | 12.56646 | 1083 ft | 97 kts | 153° |
| 2026-05-05 18:42 | 41.83463 | 12.57071 | 973 ft | 99 kts | 153° |
| 2026-05-05 18:43 | 41.82845 | 12.57501 | 846 ft | 97 kts | 154° |
| 2026-05-05 18:43 | 41.82251 | 12.57894 | 690 ft | 94 kts | 154° |
| 2026-05-05 18:43 | 41.81665 | 12.58304 | 565 ft | 96 kts | 154° |
| 2026-05-05 18:43 | 41.81073 | 12.58704 | 468 ft | 95 kts | 154° |
| 2026-05-05 18:44 | 41.80465 | 12.59126 | 356 ft | 91 kts | 154° |
| 2026-05-05 18:44 | 41.80121 | 12.59359 | 376 ft | 26 kts | 154° |
| 2026-05-05 18:44 | 41.79975 | 12.59457 | 387 ft | 21 kts | 153° |
| 2026-05-05 18:44 | 41.79866 | 12.59525 | 396 ft | 3 kts | 224° |
| 2026-05-05 18:45 | 41.79865 | 12.59460 | 392 ft | 9 kts | 242° |
| 2026-05-05 18:45 | 41.79834 | 12.59379 | 391 ft | 0 kts | 240° |
| 2026-05-05 18:45 | 41.79818 | 12.59345 | 390 ft | 8 kts | 238° |
| 2026-05-05 18:45 | 41.79784 | 12.59315 | 389 ft | 7 kts | 218° |
| 2026-05-05 18:46 | 41.79757 | 12.59272 | 388 ft | 6 kts | 292° |
| 2026-05-05 18:46 | 41.79765 | 12.59248 | 387 ft | 0 kts | 293° |